Time;durP1;ratioP1;P1;durP2;ratioP2;P2;SDS_P1;SDS_P2;PMS_P1;PMS_P2;Temp;Humidity;BMP_temperature;BMP_pressure;BME280_temperature;BME280_humidity;BME280_pressure;Samples;Min_cycle;Max_cycle;Signal;HPM_P1;HPM_P2
2023/08/18 00:01:44;;;;;;;9.07;6.18;;;;;;;-143.16;100.00;59067.41;5010689;28;20200;-73
2023/08/18 00:04:10;;;;;;;8.30;6.30;;;;;;;-143.16;100.00;59067.41;5010082;28;20680;-72
2023/08/18 00:06:37;;;;;;;9.27;6.43;;;;;;;-143.16;100.00;59067.41;5004433;28;20238;-72
2023/08/18 00:09:04;;;;;;;9.90;7.20;;;;;;;-143.16;100.00;59067.41;5006518;28;20323;-72
2023/08/18 00:11:31;;;;;;;7.90;6.30;;;;;;;-143.16;100.00;59067.41;5010366;28;20230;-73
2023/08/18 00:13:57;;;;;;;10.68;6.82;;;;;;;-143.16;100.00;59067.41;5010140;28;20200;-72
2023/08/18 00:16:23;;;;;;;6.60;5.72;;;;;;;-143.16;100.00;59067.41;5010294;28;20207;-72
2023/08/18 00:18:50;;;;;;;7.68;6.30;;;;;;;-143.16;100.00;59067.41;5008139;28;20247;-72
2023/08/18 00:21:16;;;;;;;7.57;6.20;;;;;;;-143.16;100.00;59067.41;5009840;28;20243;-72
2023/08/18 00:23:44;;;;;;;6.93;6.00;;;;;;;-143.16;100.00;59067.41;5010289;28;20204;-72
2023/08/18 00:26:10;;;;;;;8.77;5.93;;;;;;;-143.16;100.00;59067.41;5010584;28;20220;-72
2023/08/18 00:28:37;;;;;;;7.10;5.80;;;;;;;-143.16;100.00;59067.41;5007172;28;20282;-72
2023/08/18 00:31:03;;;;;;;7.47;5.63;;;;;;;-143.16;100.00;59067.41;5009470;28;20680;-72
2023/08/18 00:33:29;;;;;;;8.10;6.32;;;;;;;-143.16;100.00;59067.41;5010215;28;20299;-72
2023/08/18 00:35:56;;;;;;;7.75;6.15;;;;;;;-143.16;100.00;59067.41;5010277;28;20200;-73
2023/08/18 00:38:22;;;;;;;7.82;6.30;;;;;;;-143.16;100.00;59067.41;5000238;28;20223;-72
2023/08/18 00:40:49;;;;;;;8.02;6.60;;;;;;;-143.16;100.00;59067.41;5007887;28;20206;-73
2023/08/18 00:43:15;;;;;;;10.50;5.88;;;;;;;-143.16;100.00;59067.41;5010118;28;20291;-72
2023/08/18 00:45:42;;;;;;;9.32;6.47;;;;;;;-143.16;100.00;59067.41;5009990;28;20200;-72
2023/08/18 00:48:08;;;;;;;8.30;6.28;;;;;;;-143.16;100.00;59067.41;4992349;28;20243;-72
2023/08/18 00:50:35;;;;;;;8.63;6.10;;;;;;;-143.16;100.00;59067.41;5007451;28;20219;-72
2023/08/18 00:53:02;;;;;;;9.20;6.82;;;;;;;-143.16;100.00;59067.41;5009726;28;20200;-72
2023/08/18 00:55:29;;;;;;;9.20;6.22;;;;;;;-143.16;100.00;59067.41;5010111;28;20196;-72
2023/08/18 00:57:57;;;;;;;8.63;7.25;;;;;;;-143.16;100.00;59067.41;5008017;28;20299;-72
2023/08/18 01:00:23;;;;;;;8.32;6.80;;;;;;;-143.16;100.00;59067.41;5007384;28;20204;-73
2023/08/18 01:02:53;;;;;;;11.60;6.90;;;;;;;-143.16;100.00;59067.41;5009725;28;20283;-72
2023/08/18 01:05:19;;;;;;;10.90;7.40;;;;;;;-143.16;100.00;59067.41;5009476;28;20211;-72
2023/08/18 01:07:46;;;;;;;9.63;6.88;;;;;;;-143.16;100.00;59067.41;5007922;28;20322;-72
2023/08/18 01:10:13;;;;;;;8.40;6.65;;;;;;;-143.16;100.00;59067.41;5006787;28;20204;-72
2023/08/18 01:12:59;;;;;;;7.78;6.82;;;;;;;-143.16;100.00;59067.41;5009505;28;20227;-72
2023/08/18 01:15:32;;;;;;;7.85;6.30;;;;;;;-143.16;100.00;59067.41;5009580;28;20200;-72
2023/08/18 01:18:03;;;;;;;10.38;7.22;;;;;;;-143.16;100.00;59067.41;5001544;28;20701;-72
2023/08/18 01:20:30;;;;;;;10.63;7.05;;;;;;;-143.16;100.00;59067.41;5006254;28;20203;-72
2023/08/18 01:22:58;;;;;;;9.45;7.30;;;;;;;-143.16;100.00;59067.41;5009440;28;20200;-72
2023/08/18 01:25:25;;;;;;;8.68;6.63;;;;;;;-143.16;100.00;59067.41;5010091;28;20659;-72
2023/08/18 01:27:52;;;;;;;8.68;6.57;;;;;;;-143.16;100.00;59067.41;5008921;28;20228;-72
2023/08/18 01:30:19;;;;;;;9.50;7.00;;;;;;;-143.16;100.00;59067.41;5010352;28;20575;-72
2023/08/18 01:32:52;;;;;;;11.43;7.78;;;;;;;-143.16;100.00;59067.41;5013246;28;20200;-72
2023/08/18 01:35:21;;;;;;;9.63;7.38;;;;;;;-143.16;100.00;59067.41;5013323;28;20212;-72
2023/08/18 01:37:49;;;;;;;9.65;7.10;;;;;;;-143.16;100.00;59067.41;5013730;28;20311;-72
2023/08/18 01:40:18;;;;;;;8.27;7.32;;;;;;;-143.16;100.00;59067.41;5009678;28;20216;-72
2023/08/18 01:42:45;;;;;;;8.55;7.32;;;;;;;-143.16;100.00;59067.41;4999736;28;20204;-72
2023/08/18 01:45:11;;;;;;;9.25;7.47;;;;;;;-143.16;100.00;59067.41;4993274;28;20215;-72
2023/08/18 01:47:38;;;;;;;8.73;7.82;;;;;;;-143.16;100.00;59067.41;4993577;28;20220;-72
2023/08/18 01:50:05;;;;;;;12.45;8.07;;;;;;;-143.16;100.00;59067.41;4993275;28;20251;-72
2023/08/18 01:52:31;;;;;;;10.77;8.10;;;;;;;-143.16;100.00;59067.41;5004799;28;20204;-72
2023/08/18 01:54:57;;;;;;;11.85;8.57;;;;;;;-143.16;100.00;59067.41;5004312;28;20736;-72
2023/08/18 01:57:24;;;;;;;10.82;9.00;;;;;;;-143.16;100.00;59067.41;4993760;28;20415;-72
2023/08/18 01:59:50;;;;;;;11.23;7.95;;;;;;;-143.16;100.00;59067.41;4993085;28;20217;-72
2023/08/18 02:02:17;;;;;;;12.27;9.07;;;;;;;-143.16;100.00;59067.41;4999064;28;20291;-72
2023/08/18 02:04:43;;;;;;;12.55;8.50;;;;;;;-143.16;100.00;59067.41;5007320;28;20211;-72
2023/08/18 02:07:09;;;;;;;8.93;7.40;;;;;;;-143.16;100.00;59067.41;4994868;28;20300;-72
2023/08/18 02:09:36;;;;;;;10.32;8.00;;;;;;;-143.16;100.00;59067.41;4997955;28;20307;-72
2023/08/18 02:12:03;;;;;;;10.30;8.02;;;;;;;-143.16;100.00;59067.41;4996269;28;20208;-72
2023/08/18 02:14:30;;;;;;;10.75;8.40;;;;;;;-143.16;100.00;59067.41;5012374;28;20200;-72
2023/08/18 02:16:57;;;;;;;9.50;7.75;;;;;;;-143.16;100.00;59067.41;4996888;28;20212;-72
2023/08/18 02:19:23;;;;;;;12.68;8.50;;;;;;;-143.16;100.00;59067.41;4992784;28;20224;-72
2023/08/18 02:21:50;;;;;;;11.65;8.32;;;;;;;-143.16;100.00;59067.41;4992603;28;20207;-72
2023/08/18 02:24:16;;;;;;;10.05;8.73;;;;;;;-143.16;100.00;59067.41;5008419;28;20503;-72
2023/08/18 02:26:42;;;;;;;11.00;8.95;;;;;;;-143.16;100.00;59067.41;5006484;28;20227;-72
2023/08/18 02:29:09;;;;;;;13.77;9.13;;;;;;;-143.16;100.00;59067.41;4992586;28;20228;-72
2023/08/18 02:31:36;;;;;;;11.10;8.80;;;;;;;-143.16;100.00;59067.41;4992562;28;20279;-72
2023/08/18 02:34:03;;;;;;;10.43;8.32;;;;;;;-143.16;100.00;59067.41;5002351;28;20204;-72
2023/08/18 02:36:29;;;;;;;12.52;8.50;;;;;;;-143.16;100.00;59067.41;5008204;28;20201;-72
2023/08/18 02:38:55;;;;;;;9.93;8.38;;;;;;;-143.16;100.00;59067.41;4991308;28;20299;-72
2023/08/18 02:41:23;;;;;;;11.23;8.30;;;;;;;-143.16;100.00;59067.41;4995259;28;20196;-72
2023/08/18 02:43:50;;;;;;;12.38;8.45;;;;;;;-143.16;100.00;59067.41;5002160;28;20200;-72
2023/08/18 02:46:16;;;;;;;12.23;8.65;;;;;;;-143.16;100.00;59067.41;5011874;28;20359;-72
2023/08/18 02:48:43;;;;;;;13.30;8.35;;;;;;;-143.16;100.00;59067.41;4998272;28;20235;-72
2023/08/18 02:51:10;;;;;;;10.50;8.60;;;;;;;-143.16;100.00;59067.41;4992319;28;20205;-72
2023/08/18 02:53:37;;;;;;;12.50;9.23;;;;;;;-143.16;100.00;59067.41;4992317;28;20233;-72
2023/08/18 02:56:04;;;;;;;12.13;9.13;;;;;;;-143.16;100.00;59067.41;5012106;28;20200;-72
2023/08/18 02:58:31;;;;;;;15.85;9.60;;;;;;;-143.16;100.00;59067.41;4982416;28;20707;-72
2023/08/18 03:01:03;;;;;;;11.55;9.65;;;;;;;-143.16;100.00;59067.41;4991960;28;20683;-72
2023/08/18 03:03:29;;;;;;;12.80;10.38;;;;;;;-143.16;100.00;59067.41;4991741;28;20207;-72
2023/08/18 03:06:04;;;;;;;11.63;9.75;;;;;;;-143.16;100.00;59067.41;5007347;28;20232;-72
2023/08/18 03:08:30;;;;;;;12.82;9.00;;;;;;;-143.16;100.00;59067.41;4999429;28;20684;-72
2023/08/18 03:10:59;;;;;;;14.00;9.73;;;;;;;-143.16;100.00;59067.41;4992050;28;20205;-72
2023/08/18 03:13:25;;;;;;;12.38;9.15;;;;;;;-143.16;100.00;59067.41;4978045;28;20292;-72
2023/08/18 03:15:52;;;;;;;15.18;9.52;;;;;;;-143.16;100.00;59067.41;5005047;28;20656;-72
2023/08/18 03:18:19;;;;;;;11.38;9.35;;;;;;;-143.16;100.00;59067.41;5008846;28;20226;-72
2023/08/18 03:20:48;;;;;;;16.35;9.57;;;;;;;-143.16;100.00;59067.41;4991727;28;20204;-72
2023/08/18 03:23:15;;;;;;;12.68;9.05;;;;;;;-143.16;100.00;59067.41;4991713;28;20208;-72
2023/08/18 03:25:42;;;;;;;12.98;9.70;;;;;;;-143.16;100.00;59067.41;5002881;28;20585;-72
2023/08/18 03:28:10;;;;;;;10.85;9.23;;;;;;;-143.16;100.00;59067.41;5009771;28;20768;-72
2023/08/18 03:30:38;;;;;;;12.20;9.90;;;;;;;-143.16;100.00;59067.41;4996267;28;20200;-72
2023/08/18 03:33:05;;;;;;;16.30;9.35;;;;;;;-143.16;100.00;59067.41;4993873;28;20204;-72
2023/08/18 03:35:32;;;;;;;11.40;10.00;;;;;;;-143.16;100.00;59067.41;5005145;28;20200;-72
2023/08/18 03:37:59;;;;;;;11.48;8.75;;;;;;;-143.16;100.00;59067.41;5010817;28;20732;-72
2023/08/18 03:40:26;;;;;;;12.00;9.13;;;;;;;-143.16;100.00;59067.41;4982194;28;20295;-72
2023/08/18 03:42:52;;;;;;;11.40;8.73;;;;;;;-143.16;100.00;59067.41;4991041;28;20212;-72
2023/08/18 03:45:20;;;;;;;11.85;8.70;;;;;;;-143.16;100.00;59067.41;4992515;28;20680;-72
2023/08/18 03:47:47;;;;;;;12.68;9.05;;;;;;;-143.16;100.00;59067.41;5004365;28;20213;-72
2023/08/18 03:50:13;;;;;;;11.45;9.00;;;;;;;-143.16;100.00;59067.41;4998587;28;20209;-72
2023/08/18 03:52:40;;;;;;;13.75;9.80;;;;;;;-143.16;100.00;59067.41;4991408;28;20212;-72
2023/08/18 03:55:06;;;;;;;13.27;9.43;;;;;;;-143.16;100.00;59067.41;4990587;28;20201;-72
2023/08/18 03:57:33;;;;;;;14.55;9.93;;;;;;;-143.16;100.00;59067.41;5007414;28;20576;-72
2023/08/18 03:59:59;;;;;;;15.67;11.10;;;;;;;-143.16;100.00;59067.41;5002880;28;20204;-72
2023/08/18 04:02:26;;;;;;;16.23;10.47;;;;;;;-143.16;100.00;59067.41;4990884;28;20204;-72
2023/08/18 04:04:54;;;;;;;12.60;10.57;;;;;;;-143.16;100.00;59067.41;4990784;28;20204;-72
2023/08/18 04:07:21;;;;;;;13.60;10.37;;;;;;;-143.16;100.00;59067.41;4994365;28;20220;-72
2023/08/18 04:09:47;;;;;;;13.93;9.70;;;;;;;-143.16;100.00;59067.41;5005209;28;20231;-73
2023/08/18 04:12:15;;;;;;;13.67;10.43;;;;;;;-143.16;100.00;59067.41;4998830;28;20212;-74
2023/08/18 04:14:41;;;;;;;16.33;9.43;;;;;;;-143.16;100.00;59067.41;4990357;28;20603;-74
2023/08/18 04:17:08;;;;;;;11.50;9.83;;;;;;;-143.16;100.00;59067.41;4997149;28;20207;-73
2023/08/18 04:19:34;;;;;;;13.37;10.63;;;;;;;-143.16;100.00;59067.41;5010350;28;20238;-73
2023/08/18 04:22:00;;;;;;;14.73;11.23;;;;;;;-143.16;100.00;59067.41;4994349;28;20208;-73
2023/08/18 04:24:27;;;;;;;14.30;10.57;;;;;;;-143.16;100.00;59067.41;4990332;28;20283;-73
2023/08/18 04:26:59;;;;;;;15.80;10.77;;;;;;;-143.16;100.00;59067.41;4981145;28;20322;-73
2023/08/18 04:29:27;;;;;;;15.20;10.60;;;;;;;-143.16;100.00;59067.41;5009739;28;20220;-74
2023/08/18 04:31:54;;;;;;;14.60;10.17;;;;;;;-143.16;100.00;59067.41;4995464;28;20200;-73
2023/08/18 04:34:20;;;;;;;13.27;10.33;;;;;;;-143.16;100.00;59067.41;4990202;28;20204;-73
2023/08/18 04:36:47;;;;;;;15.47;10.57;;;;;;;-143.16;100.00;59067.41;4990384;28;20196;-73
2023/08/18 04:39:13;;;;;;;16.03;11.03;;;;;;;-143.16;100.00;59067.41;5006564;28;20231;-73
2023/08/18 04:41:39;;;;;;;13.40;10.87;;;;;;;-143.16;100.00;59067.41;5007410;28;20691;-74
2023/08/18 04:44:06;;;;;;;18.03;11.40;;;;;;;-143.16;100.00;59067.41;5001549;28;20217;-73
2023/08/18 04:46:32;;;;;;;18.30;11.07;;;;;;;-143.16;100.00;59067.41;4990447;28;20240;-73
2023/08/18 04:48:59;;;;;;;15.47;11.37;;;;;;;-143.16;100.00;59067.41;4990321;28;20227;-73
2023/08/18 04:51:26;;;;;;;17.50;12.43;;;;;;;-143.16;100.00;59067.41;4996790;28;20204;-73
2023/08/18 04:53:53;;;;;;;14.60;11.50;;;;;;;-143.16;100.00;59067.41;5009566;28;20204;-73
2023/08/18 04:56:19;;;;;;;17.55;10.93;;;;;;;-143.16;100.00;59067.41;4980497;28;20649;-73
2023/08/18 04:58:45;;;;;;;15.27;11.23;;;;;;;-143.16;100.00;59067.41;5009925;28;20220;-73
2023/08/18 05:01:12;;;;;;;14.83;11.03;;;;;;;-143.16;100.00;59067.41;4992485;28;20200;-73
2023/08/18 05:03:38;;;;;;;13.23;9.90;;;;;;;-143.16;100.00;59067.41;4993354;28;20271;-74
2023/08/18 05:06:10;;;;;;;11.33;9.50;;;;;;;-143.16;100.00;59067.41;5003945;28;20208;-74
2023/08/18 05:08:40;;;;;;;14.27;10.67;;;;;;;-143.16;100.00;59067.41;5013335;28;20814;-73
2023/08/18 05:11:08;;;;;;;16.35;10.98;;;;;;;-143.16;100.00;59067.41;4996663;28;20204;-74
2023/08/18 05:13:36;;;;;;;15.40;10.77;;;;;;;-143.16;100.00;59067.41;4976692;28;20598;-74
2023/08/18 05:16:03;;;;;;;13.20;10.93;;;;;;;-143.16;100.00;59067.41;4998734;28;20201;-74
2023/08/18 05:18:30;;;;;;;14.48;10.70;;;;;;;-143.16;100.00;59067.41;5012835;28;20215;-73
2023/08/18 05:20:58;;;;;;;15.43;10.05;;;;;;;-143.16;100.00;59067.41;5006528;28;20236;-73
2023/08/18 05:23:25;;;;;;;14.30;10.80;;;;;;;-143.16;100.00;59067.41;4993680;28;20208;-73
2023/08/18 05:25:56;;;;;;;14.40;10.30;;;;;;;-143.16;100.00;59067.41;4983134;28;20311;-73
2023/08/18 05:28:24;;;;;;;14.52;10.13;;;;;;;-143.16;100.00;59067.41;5007399;28;20227;-73
2023/08/18 05:30:52;;;;;;;14.90;10.90;;;;;;;-143.16;100.00;59067.41;5007104;28;20207;-73
2023/08/18 05:33:18;;;;;;;16.95;10.98;;;;;;;-143.16;100.00;59067.41;4993727;28;20235;-73
2023/08/18 05:35:47;;;;;;;15.15;10.13;;;;;;;-143.16;100.00;59067.41;5004909;28;20210;-74
2023/08/18 05:38:14;;;;;;;11.60;8.98;;;;;;;-143.16;100.00;59067.41;5011841;28;20394;-74
2023/08/18 05:40:43;;;;;;;17.63;9.85;;;;;;;-143.16;100.00;59067.41;4993822;28;20303;-74
2023/08/18 05:43:10;;;;;;;11.82;9.43;;;;;;;-143.16;100.00;59067.41;4993361;28;20299;-74
2023/08/18 05:45:36;;;;;;;13.90;9.77;;;;;;;-143.16;100.00;59067.41;4999715;28;20211;-74
2023/08/18 05:48:04;;;;;;;13.57;9.10;;;;;;;-143.16;100.00;59067.41;5005285;28;20224;-73
2023/08/18 05:50:31;;;;;;;12.20;8.70;;;;;;;-143.16;100.00;59067.41;4994551;28;20673;-73
2023/08/18 05:53:00;;;;;;;14.93;8.43;;;;;;;-143.16;100.00;59067.41;5012547;28;20208;-73
2023/08/18 05:55:27;;;;;;;9.48;7.78;;;;;;;-143.16;100.00;59067.41;5001766;28;20209;-73
2023/08/18 05:57:57;;;;;;;9.77;7.65;;;;;;;-143.16;100.00;59067.41;4997955;28;20216;-73
2023/08/18 06:00:24;;;;;;;11.75;7.93;;;;;;;-143.16;100.00;59067.41;5012590;28;20204;-73
2023/08/18 06:02:50;;;;;;;12.60;7.93;;;;;;;-143.16;100.00;59067.41;4998663;28;20672;-73
2023/08/18 06:05:17;;;;;;;10.98;7.75;;;;;;;-143.16;100.00;59067.41;4992652;28;20212;-73
2023/08/18 06:07:43;;;;;;;11.35;7.47;;;;;;;-143.16;100.00;59067.41;4992211;28;20221;-73
2023/08/18 06:10:11;;;;;;;12.18;8.10;;;;;;;-143.16;100.00;59067.41;5012247;28;20200;-73
2023/08/18 06:12:38;;;;;;;8.68;6.65;;;;;;;-143.16;100.00;59067.41;5000226;28;20296;-74
2023/08/18 06:15:08;;;;;;;11.27;7.07;;;;;;;-143.16;100.00;59067.41;4992788;28;20200;-74
2023/08/18 06:17:35;;;;;;;10.52;7.28;;;;;;;-143.16;100.00;59067.41;4992623;28;20193;-74
2023/08/18 06:20:02;;;;;;;9.48;6.85;;;;;;;-143.16;100.00;59067.41;5007582;28;20691;-73
2023/08/18 06:22:29;;;;;;;9.57;6.55;;;;;;;-143.16;100.00;59067.41;5000989;28;20211;-74
2023/08/18 06:24:56;;;;;;;10.23;6.80;;;;;;;-143.16;100.00;59067.41;4992542;28;20255;-73
2023/08/18 06:27:22;;;;;;;9.02;6.07;;;;;;;-143.16;100.00;59067.41;4992441;28;20303;-73
2023/08/18 06:29:49;;;;;;;10.23;6.25;;;;;;;-143.16;100.00;59067.41;5002097;28;20216;-73
2023/08/18 06:32:15;;;;;;;9.30;6.05;;;;;;;-143.16;100.00;59067.41;5002404;28;20211;-73
2023/08/18 06:34:42;;;;;;;9.82;6.28;;;;;;;-143.16;100.00;59067.41;4992631;28;20288;-73
2023/08/18 06:37:09;;;;;;;6.00;5.40;;;;;;;-143.16;100.00;59067.41;4992765;28;20208;-73
2023/08/18 06:39:35;;;;;;;10.20;5.32;;;;;;;-143.16;100.00;59067.41;4996741;28;20223;-73
2023/08/18 06:42:01;;;;;;;7.72;5.55;;;;;;;-143.16;100.00;59067.41;5011907;28;20263;-73
2023/08/18 06:44:28;;;;;;;8.35;5.60;;;;;;;-143.16;100.00;59067.41;4992285;28;20296;-73
2023/08/18 06:46:54;;;;;;;6.28;5.28;;;;;;;-143.16;100.00;59067.41;4992263;28;20389;-73
2023/08/18 06:49:21;;;;;;;7.15;5.10;;;;;;;-143.16;100.00;59067.41;4991051;28;20312;-73
2023/08/18 06:51:48;;;;;;;6.78;4.93;;;;;;;-143.16;100.00;59067.41;4993892;28;20577;-74
2023/08/18 06:54:14;;;;;;;6.60;5.20;;;;;;;-143.16;100.00;59067.41;5002529;28;20209;-73
2023/08/18 06:56:41;;;;;;;9.38;5.57;;;;;;;-143.16;100.00;59067.41;4992252;28;20201;-73
2023/08/18 06:59:12;;;;;;;7.88;5.10;;;;;;;-143.16;100.00;59067.41;4991769;28;20228;-74
2023/08/18 07:01:41;;;;;;;6.35;4.97;;;;;;;-143.16;100.00;59067.41;5005480;28;20649;-74
2023/08/18 07:04:08;;;;;;;7.80;4.80;;;;;;;-143.16;100.00;59067.41;5003514;28;20205;-73
2023/08/18 07:06:34;;;;;;;9.63;5.22;;;;;;;-143.16;100.00;59067.41;4991921;28;20207;-73
2023/08/18 07:09:01;;;;;;;8.55;5.10;;;;;;;-143.16;100.00;59067.41;4991327;28;20227;-73
2023/08/18 07:11:28;;;;;;;8.55;4.85;;;;;;;-143.16;100.00;59067.41;5000596;28;20204;-74
2023/08/18 07:13:54;;;;;;;9.88;5.22;;;;;;;-143.16;100.00;59067.41;5010845;28;20207;-74
2023/08/18 07:16:21;;;;;;;8.77;4.85;;;;;;;-143.16;100.00;59067.41;4993502;28;20292;-73
2023/08/18 07:18:47;;;;;;;8.98;4.60;;;;;;;-143.16;100.00;59067.41;4991524;28;20220;-74
2023/08/18 07:21:14;;;;;;;7.82;4.78;;;;;;;-143.16;100.00;59067.41;4994686;28;20208;-74
2023/08/18 07:23:40;;;;;;;8.80;4.72;;;;;;;-143.16;100.00;59067.41;5011121;28;20200;-74
2023/08/18 07:26:06;;;;;;;10.15;4.88;;;;;;;-143.16;100.00;59067.41;4994644;28;20224;-74
2023/08/18 07:28:33;;;;;;;6.15;4.70;;;;;;;-143.16;100.00;59067.41;4991050;28;20220;-74
2023/08/18 07:31:03;;;;;;;6.75;4.40;;;;;;;-143.16;100.00;59067.41;4991103;28;20209;-74
2023/08/18 07:33:31;;;;;;;9.88;4.85;;;;;;;-143.16;100.00;59067.41;5007693;28;20673;-74
2023/08/18 07:35:58;;;;;;;6.53;5.00;;;;;;;-143.16;100.00;59067.41;4991422;28;20566;-74
2023/08/18 07:38:24;;;;;;;7.80;4.82;;;;;;;-143.16;100.00;59067.41;4974108;28;20667;-74
2023/08/18 07:40:52;;;;;;;10.10;4.88;;;;;;;-143.16;100.00;59067.41;4984013;28;20209;-74
2023/08/18 07:43:18;;;;;;;7.07;4.60;;;;;;;-143.16;100.00;59067.41;4995836;28;20215;-74
2023/08/18 07:45:45;;;;;;;7.82;4.90;;;;;;;-143.16;100.00;59067.41;5006113;28;20552;-74
2023/08/18 07:48:12;;;;;;;6.82;4.70;;;;;;;-143.16;100.00;59067.41;4991274;28;20266;-74
2023/08/18 07:50:40;;;;;;;7.57;4.95;;;;;;;-143.16;100.00;59067.41;4991274;28;20200;-74
2023/08/18 07:53:07;;;;;;;6.07;4.47;;;;;;;-143.16;100.00;59067.41;5003902;28;20219;-73
2023/08/18 07:55:34;;;;;;;7.07;4.53;;;;;;;-143.16;100.00;59067.41;5006833;28;20284;-74
2023/08/18 07:58:00;;;;;;;7.35;4.88;;;;;;;-143.16;100.00;59067.41;4990954;28;20740;-74
2023/08/18 08:00:26;;;;;;;6.70;4.90;;;;;;;-143.16;100.00;59067.41;4990881;28;20200;-73
2023/08/18 08:02:53;;;;;;;7.28;5.32;;;;;;;-143.16;100.00;59067.41;4993369;28;20206;-74
2023/08/18 08:05:20;;;;;;;9.57;4.45;;;;;;;-143.16;100.00;59067.41;4992445;28;20639;-74
2023/08/18 08:07:47;;;;;;;5.95;4.28;;;;;;;-143.16;100.00;59067.41;4997280;28;20237;-74
2023/08/18 08:10:14;;;;;;;6.75;4.50;;;;;;;-143.16;100.00;59067.41;4990583;28;20219;-74
2023/08/18 08:12:41;;;;;;;9.68;4.82;;;;;;;-143.16;100.00;59067.41;4990347;28;20205;-74
2023/08/18 08:15:11;;;;;;;9.05;4.47;;;;;;;-143.16;100.00;59067.41;5008102;28;20200;-74
2023/08/18 08:17:38;;;;;;;8.23;4.57;;;;;;;-143.16;100.00;59067.41;4990565;28;20201;-74
2023/08/18 08:20:10;;;;;;;7.65;4.35;;;;;;;-143.16;100.00;59067.41;4990734;28;20239;-74
2023/08/18 08:22:37;;;;;;;8.50;5.20;;;;;;;-143.16;100.00;59067.41;4989765;28;20205;-74
2023/08/18 08:25:09;;;;;;;7.32;4.75;;;;;;;-143.16;100.00;59067.41;5004881;28;20226;-74
2023/08/18 08:27:36;;;;;;;8.93;4.60;;;;;;;-143.16;100.00;59067.41;5007032;28;20200;-74
2023/08/18 08:30:04;;;;;;;6.88;4.88;;;;;;;-143.16;100.00;59067.41;4991302;28;20224;-74
2023/08/18 08:32:31;;;;;;;7.63;4.63;;;;;;;-143.16;100.00;59067.41;4990160;28;20213;-74
2023/08/18 08:34:58;;;;;;;7.15;4.55;;;;;;;-143.16;100.00;59067.41;5000420;28;20200;-74
2023/08/18 08:37:25;;;;;;;6.30;4.47;;;;;;;-143.16;100.00;59067.41;5007858;28;20581;-74
2023/08/18 08:39:51;;;;;;;7.65;4.80;;;;;;;-143.16;100.00;59067.41;4990687;28;20614;-74
2023/08/18 08:42:18;;;;;;;11.93;6.07;;;;;;;-143.16;100.00;59067.41;4990127;28;20211;-74
2023/08/18 08:44:44;;;;;;;8.82;5.38;;;;;;;-143.16;100.00;59067.41;4994143;28;20223;-74
2023/08/18 08:47:11;;;;;;;6.13;4.55;;;;;;;-143.16;100.00;59067.41;4992078;28;20215;-74
2023/08/18 08:49:45;;;;;;;8.38;4.97;;;;;;;-143.16;100.00;59067.41;4989973;28;20250;-74
2023/08/18 08:52:16;;;;;;;8.45;4.78;;;;;;;-143.16;100.00;59067.41;5005865;28;20203;-75
2023/08/18 08:55:02;;;;;;;7.70;4.93;;;;;;;-143.16;100.00;59067.41;4997605;28;20236;-74
2023/08/18 08:57:33;;;;;;;7.28;4.50;;;;;;;-143.16;100.00;59067.41;4993786;28;20209;-74
2023/08/18 09:00:00;;;;;;;6.03;4.78;;;;;;;-143.16;100.00;59067.41;4990521;28;20201;-74
2023/08/18 09:02:26;;;;;;;9.98;5.00;;;;;;;-143.16;100.00;59067.41;5004059;28;20542;-74
2023/08/18 09:04:53;;;;;;;7.15;5.00;;;;;;;-143.16;100.00;59067.41;5004177;28;20208;-75
2023/08/18 09:07:20;;;;;;;7.22;4.95;;;;;;;-143.16;100.00;59067.41;4990223;28;20201;-74
2023/08/18 09:09:46;;;;;;;6.45;4.93;;;;;;;-143.16;100.00;59067.41;4989603;28;20225;-75
2023/08/18 09:12:12;;;;;;;8.23;4.78;;;;;;;-143.16;100.00;59067.41;4998196;28;20200;-75
2023/08/18 09:14:41;;;;;;;7.55;4.93;;;;;;;-143.16;100.00;59067.41;4997923;28;20228;-74
2023/08/18 09:17:08;;;;;;;9.00;5.72;;;;;;;-143.16;100.00;59067.41;4990293;28;20212;-75
2023/08/18 09:19:34;;;;;;;9.93;5.57;;;;;;;-143.16;100.00;59067.41;4989641;28;20219;-74
2023/08/18 09:22:04;;;;;;;7.88;4.90;;;;;;;-143.16;100.00;59067.41;4992782;28;20212;-74
2023/08/18 09:24:32;;;;;;;6.05;4.97;;;;;;;-143.16;100.00;59067.41;5008927;28;20208;-74
2023/08/18 09:27:06;;;;;;;6.95;5.13;;;;;;;-143.16;100.00;59067.41;4995209;28;20208;-74
2023/08/18 09:29:33;;;;;;;7.00;5.00;;;;;;;-143.16;100.00;59067.41;4989460;28;20225;-74
2023/08/18 09:32:00;;;;;;;9.23;4.93;;;;;;;-143.16;100.00;59067.41;4989054;28;20201;-75
2023/08/18 09:34:27;;;;;;;6.90;4.90;;;;;;;-143.16;100.00;59067.41;5007364;28;20291;-74
2023/08/18 09:36:54;;;;;;;6.18;4.93;;;;;;;-143.16;100.00;59067.41;5009275;28;20207;-75
2023/08/18 09:39:21;;;;;;;8.00;5.03;;;;;;;-143.16;100.00;59067.41;4992015;28;20232;-74
2023/08/18 09:41:51;;;;;;;8.05;5.28;;;;;;;-143.16;100.00;59067.41;4989344;28;20590;-74
2023/08/18 09:44:23;;;;;;;6.32;4.82;;;;;;;-143.16;100.00;59067.41;4989977;28;20204;-75
2023/08/18 09:46:54;;;;;;;9.23;4.93;;;;;;;-143.16;100.00;59067.41;5009205;28;20491;-74
2023/08/18 09:49:21;;;;;;;7.03;5.03;;;;;;;-143.16;100.00;59067.41;4994103;28;20279;-74
2023/08/18 09:52:02;;;;;;;6.28;5.05;;;;;;;-143.16;100.00;59067.41;4993142;28;20209;-75
2023/08/18 09:54:30;;;;;;;9.52;5.32;;;;;;;-143.16;100.00;59067.41;5000198;28;20211;-75
2023/08/18 09:57:06;;;;;;;8.00;5.40;;;;;;;-143.16;100.00;59067.41;5012138;28;20227;-74
2023/08/18 09:59:38;;;;;;;9.70;5.07;;;;;;;-143.16;100.00;59067.41;4984527;28;20220;-75
2023/08/18 10:02:05;;;;;;;6.78;5.25;;;;;;;-143.16;100.00;59067.41;4993432;28;20205;-75
2023/08/18 10:04:38;;;;;;;6.00;5.40;;;;;;;-143.16;100.00;59067.41;4993809;28;20226;-75
2023/08/18 10:07:06;;;;;;;8.75;5.38;;;;;;;-143.16;100.00;59067.41;5009555;28;20287;-74
2023/08/18 10:09:33;;;;;;;8.93;5.65;;;;;;;-143.16;100.00;59067.41;5027081;23;20232;-69
2023/08/18 10:12:03;;;;;;;8.10;5.28;;;;;;;-143.16;100.00;59067.41;5012178;28;20262;-70
2023/08/18 10:14:31;;;;;;;5.35;4.68;;;;;;;-143.16;100.00;59067.41;5007738;28;20212;-70
2023/08/18 10:17:01;;;;;;;6.93;4.95;;;;;;;-143.16;100.00;59067.41;5016973;28;20279;-71
2023/08/18 10:19:47;;;;;;;9.13;5.50;;;;;;;-143.16;100.00;59067.41;4989968;28;20225;-73
2023/08/18 10:22:15;;;;;;;7.18;5.30;;;;;;;-143.16;100.00;59067.41;4996600;28;20209;-70
2023/08/18 10:24:44;;;;;;;8.73;4.72;;;;;;;-143.16;100.00;59067.41;4971483;28;20664;-70
2023/08/18 10:27:28;;;;;;;7.82;4.93;;;;;;;-143.16;100.00;59067.41;5006675;28;20220;-70
2023/08/18 10:30:15;;;;;;;6.80;5.30;;;;;;;-143.16;100.00;59067.41;5000978;28;20228;-71
2023/08/18 10:32:41;;;;;;;8.77;5.00;;;;;;;-143.16;100.00;59067.41;4979022;28;20287;-72
2023/08/18 10:35:20;;;;;;;6.47;4.90;;;;;;;-143.16;100.00;59067.41;4992768;28;20647;-71
2023/08/18 10:37:55;;;;;;;9.88;5.30;;;;;;;-143.16;100.00;59067.41;5003218;28;20211;-69
2023/08/18 10:40:26;;;;;;;8.02;4.82;;;;;;;-143.16;100.00;59067.41;5010909;28;20225;-72
2023/08/18 10:42:59;;;;;;;7.15;4.97;;;;;;;-143.16;100.00;59067.41;4975252;28;20243;-72
2023/08/18 10:45:27;;;;;;;5.97;4.68;;;;;;;-143.16;100.00;59067.41;4991977;28;20251;-71
2023/08/18 10:47:57;;;;;;;6.60;4.90;;;;;;;-143.16;100.00;59067.41;5005929;28;20210;-71
2023/08/18 10:50:25;;;;;;;5.60;4.68;;;;;;;-143.16;100.00;59067.41;5010630;28;20223;-70
2023/08/18 10:52:52;;;;;;;8.40;4.65;;;;;;;-143.16;100.00;59067.41;4992426;28;20201;-73
2023/08/18 10:55:18;;;;;;;6.50;4.90;;;;;;;-143.16;100.00;59067.41;4991893;28;20632;-71
2023/08/18 10:57:46;;;;;;;8.52;4.38;;;;;;;-143.16;100.00;59067.41;4995177;28;20613;-71
2023/08/18 11:00:13;;;;;;;7.47;4.75;;;;;;;-143.16;100.00;59067.41;4993138;28;20312;-71
2023/08/18 11:02:44;;;;;;;5.72;4.82;;;;;;;-143.16;100.00;59067.41;4991806;28;20304;-70
2023/08/18 11:05:11;;;;;;;5.55;4.95;;;;;;;-143.16;100.00;59067.41;4992095;28;20295;-71
2023/08/18 11:07:37;;;;;;;7.18;4.55;;;;;;;-143.16;100.00;59067.41;4990959;28;20220;-70